KRNP

Owosso Community Airport

Owosso, Michigan, USA
METAR KRNP 191655Z AUTO 00000KT 10SM SCT090 SCT120 26/19 A3003 RMK AO2 T02580194
Observed Flight Rules
Aug-19 @ 16:55 UTC (18 minutes ago) Visual Flight Rules
Visibility Clouds
10 miles
  • Scattered at 9,000' AGL
  • Scattered at 12,000' AGL
Temperatures Readings
Current 26°C / 79°F
Dewpoint 19°C / 66°F
Humidity 65%
Altimeter 30.03" Hg
Pressure 1017 hPa
Elevation 224
METAR KRNP 191655Z AUTO 00000KT 10SM SCT090 SCT120 26/19 A3003 RMK AO2 T02580194
Observed Flight Rules
Aug-19 @ 16:55 UTC
(18 minutes ago)
VFR
Clouds
  • Scattered at 9,000' AGL
  • Scattered at 12,000' AGL
Temperature Dewpoint
26°C / 79°F 19°C / 66°F
Humidity Altimeter Pressure
65% 30.03" Hg 1017 hPa